createdAt,value
2022-09-10T00:01:25.032Z,88.57
2022-09-10T00:03:53.494Z,88.79
2022-09-10T00:06:21.327Z,89.21
2022-09-10T00:08:49.128Z,89.11
2022-09-10T00:11:15.909Z,89.36
2022-09-10T00:13:45.569Z,89.51
2022-09-10T00:16:14.606Z,89.59
2022-09-10T00:18:41.833Z,89.63
2022-09-10T00:21:11.829Z,89.76
2022-09-10T00:23:38.534Z,89.67
2022-09-10T00:26:19.160Z,89.67
2022-09-10T00:28:49.027Z,89.86
2022-09-10T00:31:15.910Z,89.90
2022-09-10T00:33:42.686Z,89.97
2022-09-10T00:36:21.663Z,89.97
2022-09-10T00:38:52.260Z,89.93
2022-09-10T00:41:21.788Z,89.80
2022-09-10T00:43:50.904Z,90.08
2022-09-10T00:46:33.439Z,90.29
2022-09-10T00:49:03.596Z,89.94
2022-09-10T00:51:35.002Z,89.93
2022-09-10T00:54:03.014Z,89.90
2022-09-10T00:56:29.978Z,89.78
2022-09-10T00:58:56.787Z,89.93
2022-09-10T01:01:23.352Z,89.95
2022-09-10T01:03:53.671Z,90.10
2022-09-10T01:06:20.416Z,90.06
2022-09-10T01:08:46.893Z,90.16
2022-09-10T01:11:23.140Z,89.89
2022-09-10T01:13:52.344Z,89.76
2022-09-10T01:16:27.902Z,89.83
2022-09-10T01:19:07.417Z,89.75
2022-09-10T01:22:02.719Z,89.80
2022-09-10T01:24:43.927Z,89.82
2022-09-10T01:27:41.466Z,89.97
2022-09-10T01:30:24.402Z,89.70
2022-09-10T01:33:00.784Z,89.97
2022-09-10T01:35:40.145Z,90.18
2022-09-10T01:38:14.025Z,90.19
2022-09-10T01:40:43.810Z,90.40
2022-09-10T01:43:11.713Z,90.31
2022-09-10T01:45:59.363Z,90.43
2022-09-10T01:48:44.233Z,90.45
2022-09-10T01:51:34.498Z,90.32
2022-09-10T01:54:26.265Z,90.18
2022-09-10T01:57:06.137Z,90.33
2022-09-10T01:59:42.278Z,90.33
2022-09-10T02:02:53.700Z,90.29
2022-09-10T02:05:23.645Z,90.12
2022-09-10T02:07:56.962Z,90.05
2022-09-10T02:10:23.893Z,90.15
2022-09-10T02:12:50.380Z,90.34
2022-09-10T02:15:18.827Z,90.23
2022-09-10T02:17:46.579Z,90.23
2022-09-10T02:20:14.808Z,90.16
2022-09-10T02:22:58.619Z,90.47
2022-09-10T02:25:31.651Z,90.21
2022-09-10T02:27:58.581Z,90.41
2022-09-10T02:30:25.019Z,90.64
2022-09-10T02:32:51.345Z,90.54
2022-09-10T02:35:18.102Z,90.22
2022-09-10T02:37:45.127Z,90.43
2022-09-10T02:40:12.001Z,90.68
2022-09-10T02:42:38.403Z,90.77
2022-09-10T02:45:05.430Z,90.70
2022-09-10T02:47:34.923Z,90.43
2022-09-10T02:50:03.706Z,90.56
2022-09-10T02:52:30.135Z,90.41
2022-09-10T02:55:00.019Z,90.36
2022-09-10T02:57:27.185Z,90.22
2022-09-10T02:59:56.816Z,90.38
2022-09-10T03:02:23.662Z,90.73
2022-09-10T03:04:50.022Z,91.08
2022-09-10T03:07:20.156Z,90.99
2022-09-10T03:09:47.145Z,91.13
2022-09-10T03:12:15.773Z,91.08
2022-09-10T03:14:43.274Z,91.29
2022-09-10T03:17:09.860Z,91.33
2022-09-10T03:19:36.595Z,91.17
2022-09-10T03:22:03.490Z,91.39
2022-09-10T03:24:29.877Z,91.35
2022-09-10T03:26:59.309Z,91.10
2022-09-10T03:29:26.285Z,91.31
2022-09-10T03:31:52.702Z,91.25
2022-09-10T03:34:19.054Z,91.28
2022-09-10T03:36:47.224Z,91.54
2022-09-10T03:39:15.285Z,91.67
2022-09-10T03:41:42.062Z,91.89
2022-09-10T03:44:08.667Z,91.79
2022-09-10T03:46:35.086Z,91.82
2022-09-10T03:49:02.330Z,91.52
2022-09-10T03:51:29.495Z,91.76
2022-09-10T03:53:55.855Z,91.45
2022-09-10T03:56:22.395Z,91.94
2022-09-10T03:58:51.961Z,91.76
2022-09-10T04:01:19.741Z,91.87
2022-09-10T04:03:49.999Z,92.02
2022-09-10T04:06:17.824Z,91.70
2022-09-10T04:08:46.724Z,91.80
2022-09-10T04:11:14.044Z,92.04
2022-09-10T04:13:40.501Z,92.12
2022-09-10T04:16:07.155Z,92.29
2022-09-10T04:18:34.193Z,92.24
2022-09-10T04:21:00.850Z,92.30
2022-09-10T04:23:27.183Z,92.39
2022-09-10T04:25:53.561Z,92.61
2022-09-10T04:28:20.088Z,92.42
2022-09-10T04:30:48.030Z,92.54
2022-09-10T04:33:14.360Z,92.31
2022-09-10T04:35:40.801Z,92.49
2022-09-10T04:38:08.008Z,92.49
2022-09-10T04:40:34.683Z,92.17
2022-09-10T04:43:01.766Z,92.43
2022-09-10T04:45:28.830Z,92.13
2022-09-10T04:47:55.933Z,92.05
2022-09-10T04:50:22.799Z,92.44
2022-09-10T04:52:49.174Z,92.20
2022-09-10T04:55:15.635Z,92.06
2022-09-10T04:57:42.196Z,92.19
2022-09-10T05:00:10.886Z,92.33
2022-09-10T05:02:37.561Z,92.37
2022-09-10T05:05:04.421Z,92.12
2022-09-10T05:07:30.883Z,92.17
2022-09-10T05:09:57.538Z,92.27
2022-09-10T05:12:24.147Z,92.11
2022-09-10T05:14:50.508Z,92.10
2022-09-10T05:17:17.036Z,92.02
2022-09-10T05:19:43.518Z,91.93
2022-09-10T05:22:10.104Z,92.42
2022-09-10T05:24:36.645Z,92.33
2022-09-10T05:27:03.401Z,92.45
2022-09-10T05:29:30.777Z,92.51
2022-09-10T05:31:57.143Z,92.29
2022-09-10T05:34:24.575Z,92.37
2022-09-10T05:36:50.892Z,92.43
2022-09-10T05:39:26.490Z,92.22
2022-09-10T05:41:55.419Z,92.32
2022-09-10T05:44:21.829Z,92.36
2022-09-10T05:46:48.489Z,92.11
2022-09-10T05:49:15.196Z,92.00
2022-09-10T05:51:41.593Z,92.29
2022-09-10T05:54:08.109Z,92.02
2022-09-10T05:56:34.744Z,92.06
2022-09-10T05:59:01.366Z,91.89
2022-09-10T06:01:29.119Z,91.77
2022-09-10T06:03:56.128Z,91.77
2022-09-10T06:06:22.476Z,91.92
2022-09-10T06:08:51.916Z,91.85
2022-09-10T06:11:18.271Z,92.07
2022-09-10T06:13:44.642Z,92.17
2022-09-10T06:16:14.356Z,91.67
2022-09-10T06:18:44.232Z,91.73
2022-09-10T06:21:16.514Z,91.68
2022-09-10T06:23:44.641Z,91.65
2022-09-10T06:26:17.015Z,91.72
2022-09-10T06:28:47.992Z,91.68
2022-09-10T06:31:17.165Z,91.44
2022-09-10T06:33:44.466Z,91.63
2022-09-10T06:36:11.301Z,91.76
2022-09-10T06:38:37.823Z,91.87
2022-09-10T06:41:07.059Z,91.77
2022-09-10T06:43:36.772Z,91.36
2022-09-10T06:46:34.741Z,91.30
2022-09-10T06:49:04.222Z,91.37
2022-09-10T06:51:31.221Z,91.37
2022-09-10T06:53:57.785Z,91.28
2022-09-10T06:56:24.583Z,91.44
2022-09-10T06:58:51.639Z,91.43
2022-09-10T07:01:20.580Z,91.28
2022-09-10T07:03:47.421Z,91.46
2022-09-10T07:06:17.975Z,91.22
2022-09-10T07:08:44.744Z,91.36
2022-09-10T07:11:13.490Z,91.39
2022-09-10T07:13:40.611Z,91.42
2022-09-10T07:16:07.623Z,91.43
2022-09-10T07:18:34.498Z,91.44
2022-09-10T07:21:13.021Z,91.42
2022-09-10T07:23:40.402Z,91.56
2022-09-10T07:26:10.046Z,91.26
2022-09-10T07:28:37.818Z,91.52
2022-09-10T07:31:18.329Z,91.18
2022-09-10T07:33:45.570Z,91.02
2022-09-10T07:36:14.486Z,91.17
2022-09-10T07:38:44.758Z,91.07
2022-09-10T07:41:13.264Z,91.19
2022-09-10T07:43:43.867Z,91.17
2022-09-10T07:46:13.841Z,91.11
2022-09-10T07:48:41.486Z,91.25
2022-09-10T07:51:09.028Z,91.32
2022-09-10T07:53:35.850Z,91.35
2022-09-10T07:56:04.674Z,91.25
2022-09-10T07:58:32.446Z,91.13
2022-09-10T08:00:59.860Z,91.00
2022-09-10T08:03:27.449Z,91.24
2022-09-10T08:05:54.086Z,91.18
2022-09-10T08:08:31.615Z,91.19
2022-09-10T08:11:11.921Z,91.25
2022-09-10T08:13:42.462Z,91.25
2022-09-10T08:16:10.684Z,91.11
2022-09-10T08:18:37.391Z,91.05
2022-09-10T08:21:05.000Z,90.96
2022-09-10T08:23:31.781Z,90.86
2022-09-10T08:25:58.226Z,90.99
2022-09-10T08:28:27.166Z,90.91
2022-09-10T08:30:56.959Z,90.90
2022-09-10T08:33:24.437Z,90.61
2022-09-10T08:35:58.793Z,90.39
2022-09-10T08:38:29.528Z,90.26
2022-09-10T08:40:57.254Z,89.91
2022-09-10T08:43:42.490Z,89.91
2022-09-10T08:46:20.424Z,89.90
2022-09-10T08:48:55.073Z,89.74
2022-09-10T08:51:34.852Z,89.58
2022-09-10T08:54:08.467Z,89.29
2022-09-10T08:56:34.900Z,89.30
2022-09-10T08:59:09.115Z,89.29
2022-09-10T09:01:42.438Z,89.13
2022-09-10T09:04:37.017Z,88.82
2022-09-10T09:07:12.618Z,88.75
2022-09-10T09:09:39.027Z,88.34
2022-09-10T09:12:15.605Z,88.43
2022-09-10T09:15:00.272Z,88.32
2022-09-10T09:17:41.193Z,88.75
2022-09-10T09:20:15.429Z,88.47
2022-09-10T09:22:51.870Z,87.90
2022-09-10T09:25:24.412Z,87.64
2022-09-10T09:27:58.094Z,86.78
2022-09-10T09:30:31.931Z,86.16
2022-09-10T09:33:04.744Z,85.78
2022-09-10T09:35:36.476Z,85.47
2022-09-10T09:38:20.777Z,85.60
2022-09-10T09:40:56.544Z,85.86
2022-09-10T09:43:35.065Z,85.96
2022-09-10T09:46:02.655Z,86.46
2022-09-10T09:48:37.797Z,86.27
2022-09-10T09:51:04.961Z,86.37
2022-09-10T09:53:31.643Z,86.50
2022-09-10T09:56:01.262Z,86.49
2022-09-10T09:58:30.761Z,86.71
2022-09-10T10:01:03.507Z,86.32
2022-09-10T10:03:48.317Z,86.33
2022-09-10T10:06:15.992Z,85.70
2022-09-10T10:08:51.961Z,83.91
2022-09-10T10:11:21.185Z,84.18
2022-09-10T10:13:50.443Z,83.57
2022-09-10T10:16:35.532Z,82.60
2022-09-10T10:19:02.207Z,82.97
2022-09-10T10:21:31.409Z,81.78
2022-09-10T10:24:00.918Z,81.43
2022-09-10T10:26:30.555Z,81.03
2022-09-10T10:29:06.462Z,80.60
2022-09-10T10:31:44.988Z,80.92
2022-09-10T10:34:40.059Z,80.94
2022-09-10T10:37:30.812Z,80.10
2022-09-10T10:40:26.484Z,79.73
2022-09-10T10:43:24.567Z,78.67
2022-09-10T10:45:59.670Z,77.97
2022-09-10T10:48:47.213Z,76.04
2022-09-10T10:51:39.792Z,76.56
2022-09-10T10:54:31.202Z,76.19
2022-09-10T10:57:17.844Z,75.63
2022-09-10T11:00:10.304Z,72.31
2022-09-10T11:02:50.443Z,70.63
2022-09-10T11:05:23.995Z,68.70
2022-09-10T11:07:50.434Z,69.96
2022-09-10T11:10:31.553Z,70.30
2022-09-10T11:13:16.387Z,70.94
2022-09-10T11:15:53.333Z,71.43
2022-09-10T11:18:35.664Z,72.17
2022-09-10T11:21:12.250Z,72.45
2022-09-10T11:23:38.498Z,72.66
2022-09-10T11:26:12.564Z,73.41
2022-09-10T11:29:04.309Z,73.27
2022-09-10T11:31:34.320Z,73.48
2022-09-10T11:34:10.264Z,73.75
2022-09-10T11:36:47.090Z,73.60
2022-09-10T11:39:24.010Z,73.36
2022-09-10T11:41:52.545Z,73.29
2022-09-10T11:44:25.011Z,73.56
2022-09-10T11:47:06.939Z,73.56
2022-09-10T11:50:00.660Z,73.83
2022-09-10T11:52:31.264Z,73.70
2022-09-10T11:54:58.551Z,73.66
2022-09-10T11:57:40.221Z,73.25
2022-09-10T12:00:12.104Z,73.47
2022-09-10T12:03:20.437Z,73.77
2022-09-10T12:06:09.257Z,73.24
2022-09-10T12:09:01.413Z,73.67
2022-09-10T12:12:06.816Z,73.62
2022-09-10T12:14:33.293Z,73.77
2022-09-10T12:17:08.636Z,73.69
2022-09-10T12:19:39.995Z,72.79
2022-09-10T12:22:17.207Z,72.50
2022-09-10T12:24:52.534Z,71.77
2022-09-10T12:27:20.147Z,70.70
2022-09-10T12:29:47.182Z,70.75
2022-09-10T12:32:15.227Z,69.27
2022-09-10T12:34:41.941Z,69.52
2022-09-10T12:37:11.059Z,68.23
2022-09-10T12:39:37.902Z,67.87
2022-09-10T12:42:34.259Z,65.44
2022-09-10T12:45:00.973Z,65.29
2022-09-10T12:47:42.030Z,64.35
2022-09-10T12:50:25.176Z,63.79
2022-09-10T12:52:51.494Z,64.49
2022-09-10T12:55:53.637Z,63.55
2022-09-10T12:58:26.827Z,64.18
2022-09-10T13:00:55.947Z,64.33
2022-09-10T13:03:25.032Z,62.27
2022-09-10T13:05:54.626Z,63.10
2022-09-10T13:08:28.905Z,61.70
2022-09-10T13:10:56.321Z,60.82
2022-09-10T13:13:40.098Z,60.43
2022-09-10T13:16:14.560Z,58.90
2022-09-10T13:18:42.049Z,58.91
2022-09-10T13:21:23.625Z,57.87
2022-09-10T13:23:50.983Z,57.27
2022-09-10T13:26:37.356Z,56.73
2022-09-10T13:29:11.281Z,55.22
2022-09-10T13:31:46.865Z,54.14
2022-09-10T13:34:14.227Z,53.10
2022-09-10T13:37:22.990Z,52.92
2022-09-10T13:40:26.813Z,52.10
2022-09-10T13:43:11.865Z,52.04
2022-09-10T13:46:00.703Z,52.10
2022-09-10T13:48:30.761Z,52.05
2022-09-10T13:51:40.182Z,52.31
2022-09-10T13:54:16.731Z,51.75
2022-09-10T13:56:46.414Z,51.29
2022-09-10T13:59:24.150Z,52.18
2022-09-10T14:01:54.334Z,51.43
2022-09-10T14:04:27.590Z,50.97
2022-09-10T14:07:13.082Z,51.20
2022-09-10T14:09:53.506Z,52.08
2022-09-10T14:12:26.046Z,51.90
2022-09-10T14:14:56.843Z,52.69
2022-09-10T14:17:28.754Z,52.38
2022-09-10T14:20:05.200Z,53.20
2022-09-10T14:22:31.999Z,52.46
2022-09-10T14:25:01.592Z,53.08
2022-09-10T14:27:36.385Z,52.64
2022-09-10T14:30:18.287Z,52.66
2022-09-10T14:32:46.257Z,51.54
2022-09-10T14:35:51.679Z,52.66
2022-09-10T14:38:38.940Z,52.99
2022-09-10T14:41:17.603Z,53.19
2022-09-10T14:43:45.576Z,53.15
2022-09-10T14:46:32.901Z,52.72
2022-09-10T14:49:01.248Z,52.79
2022-09-10T14:51:28.407Z,53.37
2022-09-10T14:53:57.277Z,54.01
2022-09-10T14:56:38.644Z,54.86
2022-09-10T14:59:22.883Z,54.78
2022-09-10T15:01:49.513Z,54.12
2022-09-10T15:04:18.825Z,53.79
2022-09-10T15:06:45.359Z,54.09
2022-09-10T15:09:14.969Z,54.18
2022-09-10T15:11:58.932Z,54.37
2022-09-10T15:14:25.926Z,54.26
2022-09-10T15:16:52.611Z,54.79
2022-09-10T15:19:19.824Z,54.81
2022-09-10T15:21:46.909Z,54.59
2022-09-10T15:24:15.653Z,54.58
2022-09-10T15:26:44.391Z,54.61
2022-09-10T15:29:11.208Z,54.91
2022-09-10T15:31:38.442Z,55.07
2022-09-10T15:34:15.118Z,55.35
2022-09-10T15:36:41.530Z,55.63
2022-09-10T15:39:11.930Z,55.57
2022-09-10T15:41:44.038Z,55.17
2022-09-10T15:44:15.869Z,54.62
2022-09-10T15:46:45.056Z,54.75
2022-09-10T15:49:14.347Z,54.51
2022-09-10T15:51:41.274Z,54.77
2022-09-10T15:54:09.899Z,55.48
2022-09-10T15:56:36.601Z,55.26
2022-09-10T15:59:05.701Z,55.47
2022-09-10T16:01:33.982Z,54.98
2022-09-10T16:04:04.485Z,54.71
2022-09-10T16:06:39.149Z,54.75
2022-09-10T16:09:11.745Z,54.72
2022-09-10T16:11:46.013Z,54.61
2022-09-10T16:14:14.563Z,54.93
2022-09-10T16:16:41.852Z,54.78
2022-09-10T16:19:09.093Z,55.09
2022-09-10T16:21:37.054Z,55.28
2022-09-10T16:24:05.035Z,55.53
2022-09-10T16:26:35.250Z,55.78
2022-09-10T16:29:06.425Z,55.91
2022-09-10T16:31:35.336Z,56.03
2022-09-10T16:34:04.656Z,56.58
2022-09-10T16:36:37.026Z,57.04
2022-09-10T16:39:07.159Z,57.31
2022-09-10T16:41:33.499Z,57.17
2022-09-10T16:44:00.663Z,57.13
2022-09-10T16:46:28.185Z,57.19
2022-09-10T16:48:56.090Z,57.20
2022-09-10T16:51:24.262Z,57.46
2022-09-10T16:54:02.255Z,57.49
2022-09-10T16:56:46.047Z,57.19
2022-09-10T16:59:23.436Z,57.72
2022-09-10T17:01:52.091Z,58.05
2022-09-10T17:04:28.806Z,57.82
2022-09-10T17:06:59.063Z,58.12
2022-09-10T17:09:26.002Z,58.41
2022-09-10T17:11:53.244Z,58.53
2022-09-10T17:14:22.921Z,58.97
2022-09-10T17:16:49.836Z,59.11
2022-09-10T17:19:19.899Z,59.46
2022-09-10T17:21:51.286Z,59.49
2022-09-10T17:24:18.628Z,59.87
2022-09-10T17:26:45.998Z,60.21
2022-09-10T17:29:15.528Z,60.85
2022-09-10T17:31:43.192Z,60.85
2022-09-10T17:34:13.688Z,61.19
2022-09-10T17:36:42.258Z,61.76
2022-09-10T17:39:08.723Z,62.10
2022-09-10T17:41:35.111Z,62.57
2022-09-10T17:44:02.472Z,62.69
2022-09-10T17:46:31.022Z,63.33
2022-09-10T17:49:00.835Z,63.69
2022-09-10T17:51:32.133Z,64.01
2022-09-10T17:53:59.008Z,64.13
2022-09-10T17:56:26.548Z,64.42
2022-09-10T17:59:01.728Z,64.63
2022-09-10T18:01:34.367Z,64.89
2022-09-10T18:04:01.011Z,65.25
2022-09-10T18:06:29.092Z,65.31
2022-09-10T18:09:00.778Z,65.81
2022-09-10T18:11:30.086Z,65.96
2022-09-10T18:13:59.283Z,66.28
2022-09-10T18:16:27.936Z,66.90
2022-09-10T18:19:13.873Z,67.20
2022-09-10T18:21:42.019Z,67.36
2022-09-10T18:24:17.391Z,68.04
2022-09-10T18:26:46.421Z,68.22
2022-09-10T18:29:13.937Z,68.55
2022-09-10T18:31:43.094Z,68.85
2022-09-10T18:34:12.899Z,69.57
2022-09-10T18:36:39.745Z,70.17
2022-09-10T18:39:10.538Z,70.63
2022-09-10T18:41:38.587Z,70.92
2022-09-10T18:44:07.973Z,71.44
2022-09-10T18:46:35.644Z,71.80
2022-09-10T18:49:02.774Z,72.15
2022-09-10T18:51:30.144Z,72.28
2022-09-10T18:54:01.005Z,72.48
2022-09-10T18:56:29.848Z,72.49
2022-09-10T18:59:02.946Z,73.32
2022-09-10T19:01:30.965Z,73.49
2022-09-10T19:03:57.983Z,73.50
2022-09-10T19:06:27.492Z,73.90
2022-09-10T19:08:59.230Z,74.23
2022-09-10T19:11:30.249Z,74.72
2022-09-10T19:13:57.190Z,74.59
2022-09-10T19:16:27.107Z,75.24
2022-09-10T19:18:58.936Z,75.24
2022-09-10T19:21:26.951Z,75.31
2022-09-10T19:23:59.366Z,75.46
2022-09-10T19:26:28.097Z,75.77
2022-09-10T19:28:57.425Z,75.86
2022-09-10T19:31:25.789Z,75.96
2022-09-10T19:33:57.142Z,75.96
2022-09-10T19:36:25.237Z,76.06
2022-09-10T19:38:51.831Z,76.43
2022-09-10T19:41:18.723Z,76.33
2022-09-10T19:43:49.009Z,76.41
2022-09-10T19:46:17.067Z,76.36
2022-09-10T19:48:43.994Z,76.42
2022-09-10T19:51:13.413Z,76.60
2022-09-10T19:53:44.019Z,76.76
2022-09-10T19:56:20.761Z,77.02
2022-09-10T19:58:50.522Z,76.78
2022-09-10T20:01:22.424Z,76.90
2022-09-10T20:03:50.593Z,77.63
2022-09-10T20:06:19.450Z,77.39
2022-09-10T20:08:48.009Z,77.14
2022-09-10T20:11:17.571Z,77.39
2022-09-10T20:13:45.111Z,77.32
2022-09-10T20:16:12.503Z,77.54
2022-09-10T20:18:39.074Z,78.00
2022-09-10T20:21:27.270Z,78.39
2022-09-10T20:23:57.967Z,78.26
2022-09-10T20:26:29.743Z,77.89
2022-09-10T20:29:00.738Z,78.22
2022-09-10T20:31:29.108Z,78.36
2022-09-10T20:33:57.129Z,78.61
2022-09-10T20:36:26.607Z,78.54
2022-09-10T20:38:54.160Z,78.66
2022-09-10T20:41:20.814Z,78.77
2022-09-10T20:43:51.668Z,78.88
2022-09-10T20:46:22.590Z,78.94
2022-09-10T20:48:51.898Z,79.00
2022-09-10T20:51:20.087Z,79.13
2022-09-10T20:53:47.103Z,79.21
2022-09-10T20:56:17.720Z,79.28
2022-09-10T20:58:45.706Z,79.56
2022-09-10T21:01:13.342Z,79.60
2022-09-10T21:03:41.223Z,79.70
2022-09-10T21:06:12.517Z,79.74
2022-09-10T21:08:40.807Z,79.99
2022-09-10T21:11:09.982Z,80.15
2022-09-10T21:13:37.827Z,80.12
2022-09-10T21:16:19.208Z,80.27
2022-09-10T21:18:54.341Z,80.12
2022-09-10T21:21:25.159Z,80.38
2022-09-10T21:23:53.664Z,80.27
2022-09-10T21:26:23.819Z,80.34
2022-09-10T21:28:53.498Z,80.28
2022-09-10T21:31:22.463Z,80.53
2022-09-10T21:33:48.884Z,80.55
2022-09-10T21:36:17.989Z,80.37
2022-09-10T21:38:53.271Z,80.71
2022-09-10T21:41:33.468Z,80.79
2022-09-10T21:44:02.907Z,80.76
2022-09-10T21:46:29.657Z,80.94
2022-09-10T21:48:56.338Z,81.24
2022-09-10T21:51:23.040Z,81.37
2022-09-10T21:53:56.299Z,81.23
2022-09-10T21:56:25.936Z,81.22
2022-09-10T21:58:53.577Z,81.02
2022-09-10T22:01:24.162Z,81.22
2022-09-10T22:03:54.942Z,81.27
2022-09-10T22:06:24.407Z,81.27
2022-09-10T22:08:53.189Z,81.26
2022-09-10T22:11:24.298Z,81.36
2022-09-10T22:13:53.212Z,81.31
2022-09-10T22:16:20.761Z,81.22
2022-09-10T22:18:47.194Z,81.24
2022-09-10T22:21:13.585Z,81.36
2022-09-10T22:23:40.110Z,81.56
2022-09-10T22:26:18.254Z,81.72
2022-09-10T22:28:45.139Z,81.40
2022-09-10T22:31:14.326Z,81.26
2022-09-10T22:33:42.848Z,81.32
2022-09-10T22:36:10.223Z,81.49
2022-09-10T22:38:36.724Z,81.73
2022-09-10T22:41:07.127Z,81.95
2022-09-10T22:43:35.323Z,82.08
2022-09-10T22:46:01.821Z,81.97
2022-09-10T22:48:28.204Z,81.97
2022-09-10T22:50:55.262Z,81.75
2022-09-10T22:53:21.739Z,82.03
2022-09-10T22:55:48.123Z,82.08
2022-09-10T22:58:14.789Z,81.97
2022-09-10T23:00:41.100Z,82.13
2022-09-10T23:03:07.541Z,82.00
2022-09-10T23:05:35.210Z,82.06
2022-09-10T23:08:01.752Z,81.99
2022-09-10T23:10:28.097Z,82.13
2022-09-10T23:12:57.250Z,81.96
2022-09-10T23:15:23.632Z,82.06
2022-09-10T23:17:50.006Z,81.81
2022-09-10T23:20:16.493Z,81.81
2022-09-10T23:22:42.801Z,82.17
2022-09-10T23:25:09.580Z,81.99
2022-09-10T23:27:38.658Z,82.42
2022-09-10T23:30:05.903Z,82.43
2022-09-10T23:32:32.230Z,82.57
2022-09-10T23:35:00.291Z,82.22
2022-09-10T23:37:26.671Z,82.07
2022-09-10T23:39:53.068Z,81.78
2022-09-10T23:42:22.569Z,81.95
2022-09-10T23:44:48.891Z,81.86
2022-09-10T23:47:15.211Z,81.86
2022-09-10T23:49:41.550Z,82.00
2022-09-10T23:52:08.143Z,82.09
2022-09-10T23:54:35.121Z,82.14
2022-09-10T23:57:02.719Z,82.03
2022-09-10T23:59:29.163Z,82.12
